Date,TemperatureHighF,TemperatureAvgF,TemperatureLowF,DewpointHighF,DewpointAvgF,DewpointLowF,HumidityHigh,HumidityAvg,HumidityLow,PressureMaxIn,PressureMinIn,WindSpeedMaxMPH,WindSpeedAvgMPH,GustSpeedMaxMPH,PrecipitationSumIn
2013-1-1,37.5,28.7,20.3,21.5,15.5,12.2,76,59,41,30.47,30.21,8,2,11,0.00
2013-1-2,36.6,25.3,14.4,13.2,10.2,6.9,76,55,29,30.53,30.38,5,2,9,0.00
2013-1-3,37.0,25.5,15.7,16.1,11.4,6.7,71,56,38,30.62,30.49,4,1,7,0.00
2013-1-4,35.7,23.6,12.0,12.2,5.7,0.8,68,47,29,30.64,30.46,6,2,9,0.00
2013-1-5,44.3,29.0,14.8,10.5,7.1,4.5,66,41,22,30.67,30.53,4,1,8,0.00
2013-1-6,44.2,29.2,15.3,12.4,8.7,5.1,68,44,24,30.64,30.34,4,1,8,0.00
2013-1-7,52.1,37.4,28.5,19.0,14.2,9.5,51,39,26,30.34,30.07,4,1,6,0.00
2013-1-8,50.2,36.2,26.4,18.3,14.7,10.8,63,43,21,30.40,30.08,8,4,12,0.00
2013-1-9,54.0,37.8,24.4,16.6,14.4,12.1,59,40,22,30.59,30.27,5,2,11,0.00
2013-1-10,46.4,35.9,24.2,23.4,14.8,11.5,59,43,28,30.26,29.85,8,2,10,0.00
2013-1-11,44.5,34.7,21.1,25.1,7.5,-8.0,59,33,18,30.04,29.71,16,7,23,0.00
2013-1-12,34.2,22.5,12.2,2.6,-3.0,-10.3,51,33,17,30.30,30.04,5,2,10,0.00
2013-1-13,31.6,20.9,9.0,4.3,-0.9,-4.5,56,39,26,30.40,30.24,5,1,10,0.00
2013-1-14,29.7,21.7,15.7,22.7,11.4,0.4,88,65,43,30.38,30.20,7,2,9,0.01
2013-1-15,26.0,17.1,5.7,7.4,3.3,0.1,82,56,36,30.73,30.38,8,2,14,0.00
2013-1-16,39.8,25.4,9.6,16.0,9.0,2.3,73,51,35,30.80,30.62,6,1,10,0.00
2013-1-17,51.0,32.1,18.1,18.6,14.9,10.2,71,52,25,30.79,30.60,3,1,6,0.00
2013-1-18,53.0,35.6,21.4,20.6,18.1,14.7,76,52,26,30.60,30.39,4,1,5,0.00
2013-1-19,54.0,37.1,27.2,21.1,18.6,14.8,67,49,21,30.53,30.40,7,2,9,0.00
2013-1-20,56.0,37.4,20.1,19.7,15.0,10.8,74,44,18,30.48,30.31,4,1,8,0.00
2013-1-21,55.9,38.4,20.5,19.0,13.9,10.6,65,39,19,30.47,30.31,7,2,9,0.00
2013-1-22,60.5,41.0,23.8,18.7,15.4,9.1,72,40,15,30.46,30.32,5,1,8,0.00
2013-1-23,61.5,40.4,24.3,15.7,13.0,8.6,63,36,13,30.51,30.37,4,1,5,0.00
2013-1-24,62.9,44.7,26.3,35.4,17.7,10.5,57,37,17,30.45,30.26,6,1,7,0.00
2013-1-25,59.3,49.0,37.7,39.8,35.0,29.5,75,59,48,30.32,30.15,3,0,5,0.00
2013-1-26,56.5,48.1,42.6,48.9,40.3,34.9,89,74,60,30.17,29.87,12,2,14,0.13
2013-1-27,60.0,49.7,41.8,41.5,37.9,32.8,86,66,36,30.00,29.88,10,3,13,0.00
2013-1-28,56.1,45.9,38.4,38.6,32.8,18.0,84,62,34,29.91,29.70,14,6,22,0.00
2013-1-29,38.0,32.9,28.4,22.6,14.9,4.2,69,48,27,30.14,29.75,14,6,27,0.00
2013-1-30,43.1,33.2,24.6,17.6,14.7,8.3,63,48,30,30.42,30.15,14,4,21,0.00
2013-1-31,54.6,38.4,23.5,24.6,20.1,16.3,76,51,24,30.50,30.35,8,2,13,0.00
2013-2-1,58.1,40.4,24.0,23.1,20.5,15.6,80,49,22,30.41,30.27,9,2,11,0.00
2013-2-2,59.3,43.9,28.9,23.0,21.0,18.7,68,42,21,30.47,30.35,6,1,13,0.00
2013-2-3,52.5,42.3,30.4,30.1,21.6,17.5,63,46,25,30.38,30.06,5,1,13,0.00
2013-2-4,59.3,46.4,35.0,30.1,25.9,18.0,74,47,21,30.17,30.02,7,3,9,0.00
2013-2-5,62.0,45.7,31.6,24.5,20.2,15.2,66,39,17,30.16,30.01,4,1,7,0.00
2013-2-6,61.3,44.9,27.7,28.6,21.7,16.3,63,42,26,30.05,29.89,9,2,10,0.00
2013-2-7,58.8,46.2,31.8,27.3,22.5,12.9,72,42,17,30.19,30.04,6,2,10,0.00
2013-2-8,57.7,46.7,34.9,24.4,21.3,18.1,55,38,26,30.15,29.76,15,4,23,0.00
2013-2-9,49.5,38.0,29.9,23.8,15.9,5.2,59,42,21,29.94,29.64,20,7,26,0.00
2013-2-10,44.0,35.5,29.0,23.0,15.3,10.3,68,45,26,30.11,29.94,9,4,13,0.00
2013-2-11,45.9,34.1,21.1,23.1,17.6,3.1,82,56,17,30.18,30.03,11,3,16,0.00
2013-2-12,42.9,33.5,25.3,23.8,13.8,6.6,74,47,23,30.34,30.09,10,4,13,0.00
2013-2-13,48.7,36.7,21.8,18.5,14.0,9.9,60,40,25,30.36,30.19,10,4,14,0.00
2013-2-14,52.3,40.7,26.4,21.0,18.4,14.8,66,42,23,30.30,30.14,12,4,18,0.00
2013-2-15,52.1,40.8,27.2,23.7,14.1,2.3,71,39,13,30.48,30.30,14,3,21,0.00
2013-2-16,60.5,42.4,25.5,13.5,8.2,-2.2,54,28,9,30.55,30.22,4,1,7,0.00
2013-2-17,60.6,43.2,23.8,9.1,4.5,-1.8,46,23,8,30.24,29.78,12,4,14,0.00
2013-2-18,52.8,43.7,33.8,18.8,-2.3,-26.6,45,18,3,30.14,29.87,12,4,27,0.00
2013-2-19,60.2,42.7,25.6,35.3,6.8,-9.1,66,26,10,30.16,29.79,16,6,27,0.00
2013-2-20,51.0,43.8,34.6,35.6,28.8,14.7,74,58,25,29.80,29.48,16,6,20,0.00
2013-2-21,48.1,36.5,27.9,28.1,24.2,20.0,93,64,34,30.00,29.58,11,4,18,0.12
2013-2-22,44.7,35.7,30.5,24.3,21.5,12.0,72,57,29,30.18,29.99,10,3,13,0.00
2013-2-23,48.3,36.7,22.7,19.1,14.2,9.4,67,42,23,30.24,29.83,9,2,14,0.00
2013-2-24,43.0,35.5,28.7,25.9,16.4,5.0,89,48,24,30.01,29.72,13,6,19,0.00
2013-2-25,50.0,37.6,27.0,25.5,12.5,1.2,86,41,14,30.24,30.02,8,3,12,0.01
2013-2-26,48.7,35.9,23.7,17.4,7.4,-8.2,68,34,12,30.23,29.92,16,5,22,0.00
2013-2-27,47.1,35.2,22.1,10.8,6.3,-0.3,59,32,16,30.44,30.23,7,1,13,0.00
2013-2-28,54.8,39.7,26.0,9.4,4.9,-3.5,42,25,9,30.49,30.33,10,3,16,0.00
2013-3-1,60.6,47.4,35.3,21.7,14.7,6.8,37,27,18,30.47,30.28,9,4,12,0.00
2013-3-2,66.8,50.3,32.5,24.3,21.9,19.4,61,35,17,30.45,30.18,5,1,7,0.00
2013-3-3,69.7,52.2,34.2,24.0,16.8,-6.2,57,30,5,30.19,29.86,11,3,17,0.00
2013-3-4,63.4,55.6,47.5,24.7,20.6,15.9,36,26,16,30.05,29.71,11,4,18,0.00
2013-3-5,60.9,47.7,32.2,22.7,18.6,9.6,66,35,13,30.33,30.06,7,2,10,0.00
2013-3-6,67.1,54.3,43.7,26.6,22.8,17.4,40,30,18,30.20,29.89,8,3,12,0.00
2013-3-7,70.8,55.5,36.2,23.2,19.3,15.6,50,27,13,30.04,29.82,9,3,14,0.00
2013-3-8,61.0,48.8,39.3,43.6,26.9,15.3,86,47,21,29.92,29.69,14,4,17,0.17
2013-3-9,46.9,40.2,33.9,34.2,24.9,16.8,76,55,31,30.07,29.79,11,4,15,0.00
2013-3-10,53.2,41.5,30.2,29.2,23.8,14.6,83,54,25,30.25,30.06,9,2,10,0.00
2013-3-11,64.7,48.1,30.9,21.5,17.4,7.5,61,33,11,30.27,30.03,9,3,10,0.00
2013-3-12,67.6,53.6,37.3,24.8,22.4,20.2,54,32,17,30.23,30.09,7,2,12,0.00
2013-3-13,71.5,54.9,36.6,27.1,23.5,17.0,62,33,15,30.34,30.15,6,2,11,0.00
2013-3-14,75.9,58.4,41.9,24.8,19.4,12.1,45,25,9,30.30,30.10,6,2,8,0.00
2013-3-15,79.4,59.8,40.1,21.5,16.3,6.5,40,21,6,30.14,29.85,5,1,8,0.00
2013-3-16,72.6,60.9,47.6,35.1,21.7,15.2,47,23,13,29.86,29.62,12,4,16,0.00
2013-3-17,70.3,56.3,45.9,36.0,21.3,-16.7,62,35,3,29.79,29.61,12,4,20,0.00
2013-3-18,68.5,54.1,38.7,12.8,7.3,1.3,33,17,7,29.96,29.79,10,3,16,0.00
2013-3-19,63.3,51.8,42.3,18.6,11.3,5.1,32,20,13,30.17,29.95,9,2,14,0.00
2013-3-20,63.1,50.6,32.9,27.2,18.9,15.0,49,30,18,30.26,29.86,8,2,10,0.00
2013-3-21,72.7,60.6,51.0,33.3,18.7,-7.3,43,24,4,29.86,29.52,11,4,16,0.00
2013-3-22,67.2,53.2,36.3,28.4,13.6,4.6,39,22,10,29.76,29.55,14,4,20,0.00
2013-3-23,52.7,42.2,33.4,29.0,4.3,-15.5,52,24,8,30.15,29.67,18,7,22,0.00
2013-3-24,54.7,40.1,25.2,1.1,-4.7,-12.3,28,15,9,30.27,30.02,12,3,18,0.00
2013-3-25,57.1,41.9,26.0,11.6,7.5,0.7,47,26,15,30.32,30.14,9,2,12,0.00
2013-3-26,66.0,49.6,32.8,13.9,10.4,8.1,36,22,11,30.27,29.95,12,5,14,0.00
2013-3-27,70.9,59.4,44.5,16.9,12.4,5.7,31,17,9,30.05,29.87,9,3,14,0.00
2013-3-28,72.3,62.3,46.7,24.5,16.4,9.2,29,17,9,30.03,29.88,10,2,14,0.00
2013-3-29,74.8,61.6,46.8,25.3,20.8,13.5,41,23,10,30.09,29.92,6,2,9,0.00
2013-3-30,73.9,59.7,41.9,27.5,21.0,16.1,43,24,12,30.09,29.88,8,2,9,0.00
2013-3-31,73.6,62.0,49.9,33.0,28.2,25.8,42,29,18,30.00,29.82,7,2,9,0.00
2013-4-1,75.5,63.7,48.4,29.8,18.8,2.9,41,21,7,29.94,29.70,10,2,11,0.00
2013-4-2,68.4,58.4,49.0,24.7,17.3,-2.0,32,21,6,29.90,29.68,12,4,16,0.00
2013-4-3,67.8,53.8,39.7,31.5,27.1,19.0,66,40,16,30.09,29.90,7,3,12,0.00
2013-4-4,74.2,58.4,42.0,29.8,20.7,8.9,57,28,9,30.20,29.98,5,2,7,0.00
2013-4-5,77.1,64.5,50.7,19.6,14.9,7.2,25,15,7,30.02,29.65,12,4,21,0.00
2013-4-6,77.0,64.9,49.9,26.9,21.4,14.2,37,20,10,29.85,29.65,10,3,16,0.00
2013-4-7,76.7,65.8,51.0,27.8,20.0,12.6,37,19,9,29.76,29.57,10,3,13,0.00
2013-4-8,76.5,65.4,52.6,30.2,22.0,10.7,37,20,8,29.60,29.18,20,8,24,0.00
2013-4-9,55.9,46.9,41.3,37.0,32.2,26.7,81,57,37,29.84,29.23,14,6,22,0.08
2013-4-10,48.6,42.9,38.0,36.2,26.9,20.6,84,55,37,30.03,29.84,9,3,15,0.00
2013-4-11,65.0,50.0,33.3,31.4,24.6,18.1,64,39,22,30.05,29.83,11,4,18,0.00
2013-4-12,68.3,57.8,44.6,34.3,29.7,22.7,61,37,18,29.88,29.73,8,2,9,0.00
2013-4-13,74.7,61.5,43.0,30.4,21.8,11.5,48,25,10,29.83,29.54,11,4,16,0.00
2013-4-14,78.0,66.7,57.0,25.5,22.9,18.0,29,20,11,29.58,29.41,13,9,21,0.00
2013-4-15,81.7,65.7,49.1,26.3,19.6,7.3,37,19,6,29.61,29.39,13,5,19,0.00
2013-4-16,80.7,67.6,54.5,25.3,15.4,-7.6,27,15,3,29.65,29.43,18,8,27,0.00
2013-4-17,64.8,54.3,41.5,28.6,19.8,9.4,41,27,12,29.91,29.49,14,5,16,0.00
2013-4-18,48.9,39.5,32.2,18.9,9.9,1.6,41,31,15,30.11,29.91,10,4,19,0.00
2013-4-19,64.1,47.7,30.9,7.5,4.9,-2.4,36,19,8,30.40,30.01,5,2,0,0.00
2013-4-20,69.3,57.4,45.2,20.6,7.7,-4.1,27,14,10,30.02,29.78,11,4,0,0.00
2013-4-21,75.7,59.1,39.5,24.0,17.5,-0.3,49,24,5,30.10,29.88,5,2,0,0.00
2013-4-22,82.1,66.8,48.6,22.0,14.4,4.4,33,16,5,29.93,29.62,10,5,0,0.00
2013-4-23,68.5,59.3,45.0,30.6,16.8,-18.3,53,23,4,30.00,29.66,11,6,0,0.00
2013-4-24,70.5,51.4,31.4,21.7,18.1,14.3,58,32,13,30.19,30.02,5,2,0,0.00
2013-4-25,76.2,60.5,49.3,30.3,24.8,12.8,39,27,10,30.06,29.70,17,4,32,0.00
2013-4-26,77.5,62.8,48.0,32.2,20.4,-4.3,51,25,4,30.08,29.90,8,2,32,0.00
2013-4-27,78.0,63.4,48.0,30.0,14.6,-12.1,45,22,3,30.13,29.91,6,2,15,0.00
2013-4-28,82.4,64.8,43.6,15.8,6.2,-14.8,32,13,2,30.00,29.73,7,1,10,0.00
2013-4-29,85.8,68.3,46.9,21.2,14.7,9.0,32,15,6,29.81,29.55,12,2,15,0.00
2013-4-30,86.6,72.5,56.6,23.4,14.9,0.9,27,13,4,29.66,29.49,12,4,16,0.00
2013-5-1,83.3,70.9,53.6,28.6,11.8,-10.6,38,12,5,29.98,29.59,12,5,20,0.00
2013-5-2,62.8,50.9,40.7,29.5,18.8,11.7,55,31,14,30.39,29.98,8,3,13,0.00
2013-5-3,67.6,52.4,36.2,17.7,14.3,8.3,41,24,10,30.41,29.98,7,3,13,0.00
2013-5-4,76.8,61.7,42.3,19.0,11.0,3.9,33,15,6,30.00,29.75,10,4,19,0.00
2013-5-5,72.8,62.7,53.0,33.9,20.7,9.1,29,20,12,30.00,29.84,13,6,24,0.00
2013-5-6,71.3,62.9,55.9,40.2,27.2,17.1,52,27,17,29.89,29.81,12,4,24,0.00
2013-5-7,75.8,64.2,50.1,33.9,30.6,22.9,50,30,14,29.93,29.70,14,3,21,0.00
2013-5-8,72.0,62.3,50.0,36.9,26.7,15.7,58,30,12,29.90,29.78,11,3,12,0.00
2013-5-9,74.0,62.3,49.9,36.7,25.8,20.4,44,26,14,30.00,29.83,10,3,17,0.00
2013-5-10,68.4,59.6,50.7,43.1,37.4,33.7,64,45,29,30.20,29.96,11,3,18,0.02
2013-5-11,71.1,59.8,47.0,44.6,38.4,29.0,84,49,21,30.25,30.17,10,2,18,0.00
2013-5-12,80.4,64.4,46.9,37.5,33.4,28.4,60,35,16,30.26,30.00,7,1,8,0.00
2013-5-13,83.2,69.0,50.4,36.0,31.0,26.0,52,27,13,30.14,29.92,7,2,10,0.00
2013-5-14,85.5,71.1,56.4,47.6,28.3,16.1,50,22,11,29.95,29.68,11,3,13,0.00
2013-5-15,90.0,74.4,63.2,44.5,36.3,21.4,49,28,11,29.80,29.59,8,2,16,0.00
2013-5-16,87.2,74.6,58.8,27.4,18.4,0.6,29,14,4,29.79,29.60,10,3,13,0.00
2013-5-17,87.0,73.7,55.0,26.5,20.8,9.0,32,15,7,29.81,29.60,16,3,20,0.00
2013-5-18,77.3,70.9,57.6,31.5,20.5,11.7,28,15,10,29.78,29.58,13,4,26,0.00
2013-5-19,75.6,66.0,58.0,36.4,30.7,17.8,43,28,12,29.78,29.67,12,5,17,0.00
2013-5-20,77.4,64.5,53.1,36.3,28.5,0.6,51,30,5,29.85,29.68,13,4,21,0.00
2013-5-21,82.2,66.2,50.0,35.6,29.9,19.7,53,30,10,29.93,29.70,8,2,12,0.00
2013-5-22,87.1,72.8,54.4,36.3,21.1,6.5,43,18,5,29.78,29.57,8,3,10,0.00
2013-5-23,91.2,76.7,56.9,48.0,19.7,6.1,37,14,5,29.77,29.56,15,4,19,0.00
2013-5-24,88.4,76.1,61.2,49.6,33.1,16.8,50,25,8,29.84,29.64,9,4,16,0.00
2013-5-25,91.7,76.5,57.4,39.6,21.2,-2.2,32,15,3,29.86,29.60,10,3,14,0.00
2013-5-26,89.1,75.7,57.3,27.4,12.6,-24.7,30,12,1,29.83,29.61,9,2,14,0.00
2013-5-27,85.7,72.0,58.6,22.0,12.6,-5.9,21,11,3,29.80,29.61,9,2,15,0.00
2013-5-28,84.7,72.3,52.9,25.3,14.2,-5.4,33,13,3,29.67,29.40,8,2,10,0.00
2013-5-29,82.1,72.8,61.5,38.1,22.4,-1.4,37,18,4,29.54,29.40,12,4,16,0.00
2013-5-30,88.4,74.5,55.3,30.4,21.7,15.2,30,15,7,29.69,29.54,10,3,13,0.00
2013-5-31,87.8,77.3,64.4,39.2,25.4,-0.7,38,17,5,29.74,29.59,11,5,19,0.00
2013-6-1,88.6,73.3,52.7,31.2,8.4,-24.6,26,11,1,29.89,29.75,9,2,20,0.00
2013-6-2,86.5,75.4,64.7,45.7,36.8,29.8,38,25,17,29.88,29.60,11,4,22,0.00
2013-6-3,92.8,78.1,65.3,50.7,36.8,8.4,52,29,5,29.77,29.54,9,4,21,0.00
2013-6-4,93.6,79.6,59.3,32.8,18.9,0.0,27,12,3,29.76,29.57,12,3,13,0.00
2013-6-5,91.2,78.8,65.9,47.0,33.1,16.6,36,21,7,29.72,29.56,11,3,37,0.00
2013-6-6,89.2,74.1,57.7,44.7,39.4,23.7,55,32,10,29.82,29.64,9,3,16,0.00
2013-6-7,91.4,75.5,62.1,51.2,44.0,25.8,65,37,10,29.81,29.54,11,2,19,0.00
2013-6-8,97.6,80.3,61.0,46.4,35.4,18.8,57,26,6,29.69,29.48,11,4,20,0.00
2013-6-9,96.8,83.2,68.3,48.2,43.1,32.3,47,27,11,29.73,29.58,7,2,9,0.00
2013-6-10,99.9,87.3,72.1,49.6,37.1,20.7,44,21,6,29.73,29.53,12,4,13,0.00
2013-6-11,101.2,88.0,71.3,37.9,22.1,4.3,28,11,3,29.74,29.55,8,2,12,0.00
2013-6-12,100.0,83.9,65.2,37.7,24.0,11.4,28,14,4,29.80,29.65,6,1,11,0.00
2013-6-13,97.4,82.2,67.2,52.2,39.0,30.0,43,23,10,29.78,29.59,11,3,21,0.07
2013-6-14,94.2,79.7,70.6,55.4,50.2,42.9,49,37,18,29.73,29.55,11,3,16,0.04
2013-6-15,95.3,79.0,62.7,52.9,43.0,29.3,66,34,11,29.84,29.68,12,3,13,0.00
2013-6-16,94.7,80.7,65.9,49.0,41.3,33.1,52,26,12,29.85,29.69,12,3,22,0.00
2013-6-17,93.3,79.9,64.9,49.3,41.0,32.8,48,28,12,29.87,29.65,12,2,22,0.00
2013-6-18,91.6,79.2,66.4,53.4,47.2,37.2,59,36,16,29.85,29.59,11,6,32,0.00
2013-6-19,97.4,83.5,66.4,50.8,23.5,-19.6,42,19,1,29.70,29.46,13,4,32,0.00
2013-6-20,97.0,81.2,60.6,34.0,1.0,-99.9,29,11,1,29.74,29.53,10,2,15,0.00
2013-6-21,96.4,80.7,63.0,47.0,20.2,-20.0,43,15,1,29.77,29.56,10,3,19,0.00
2013-6-22,94.5,80.4,60.9,27.8,14.6,-7.3,28,10,2,29.75,29.55,10,3,16,0.00
2013-6-23,93.1,79.8,59.6,27.4,15.1,4.1,27,10,4,29.75,29.52,9,3,14,0.00
2013-6-24,95.3,81.8,64.1,31.1,13.4,-9.5,28,10,2,29.72,29.55,10,3,16,0.00
2013-6-25,96.0,81.9,62.9,30.2,20.9,7.1,24,11,5,29.80,29.64,7,2,9,0.00
2013-6-26,100.0,83.6,63.3,36.5,27.5,21.1,35,15,6,29.85,29.67,6,2,9,0.00
2013-6-27,108.5,88.7,67.7,36.8,29.3,14.7,31,14,4,29.84,29.66,9,2,10,0.00
2013-6-28,98.1,87.0,78.1,50.7,43.2,32.9,37,23,13,29.85,29.71,16,4,20,0.00
2013-6-29,99.5,82.4,68.2,51.4,45.7,34.6,52,31,11,29.87,29.67,18,3,18,0.00
2013-6-30,98.4,81.4,69.3,52.8,46.8,38.5,52,32,13,29.89,29.61,13,3,21,0.00
2013-7-1,88.8,74.2,62.8,55.5,51.6,44.3,76,48,23,29.97,29.80,11,4,23,0.01
2013-7-2,88.3,74.4,64.3,55.1,48.6,44.1,59,42,22,30.02,29.76,10,4,23,0.00
2013-7-3,88.7,72.7,60.3,57.9,52.7,44.6,80,53,24,29.95,29.67,13,3,13,0.04
2013-7-4,92.0,78.6,65.0,56.5,51.7,44.6,70,43,21,29.78,29.60,10,3,11,0.00
2013-7-5,95.1,78.6,67.7,65.8,54.7,49.0,88,47,21,29.73,29.52,12,3,18,0.81
2013-7-6,94.6,76.0,65.6,64.7,57.0,44.1,89,58,18,29.79,29.60,9,2,18,0.06
2013-7-7,96.8,80.6,66.3,61.0,55.6,47.1,80,48,19,29.79,29.63,7,2,10,0.02
2013-7-8,95.6,81.0,69.6,62.4,55.0,51.7,76,43,23,29.90,29.70,12,3,14,0.00
2013-7-9,97.1,80.5,68.7,62.0,57.2,49.7,77,49,21,29.92,29.76,15,2,15,0.00
2013-7-10,95.1,83.7,70.9,59.1,54.0,47.5,63,38,21,29.86,29.68,11,4,19,0.00
2013-7-11,88.4,79.1,70.1,61.0,56.7,50.3,72,48,29,29.88,29.68,10,5,17,0.00
2013-7-12,92.5,80.1,69.5,61.2,56.5,50.1,68,47,24,29.82,29.66,9,3,17,0.00
2013-7-13,95.1,81.4,69.0,61.4,55.5,46.3,75,44,20,29.83,29.68,10,3,13,0.09
2013-7-14,98.3,80.7,67.4,64.4,55.5,47.3,86,46,19,29.83,29.57,8,2,21,0.21
2013-7-15,73.9,69.9,67.2,63.3,57.0,50.4,87,65,50,29.96,29.75,10,4,21,0.00
2013-7-16,81.6,71.6,63.9,52.1,49.4,46.7,65,47,31,30.03,29.89,9,3,18,0.00
2013-7-17,81.9,71.5,62.0,56.1,52.5,47.8,78,53,32,30.12,29.98,9,4,15,0.02
2013-7-18,83.8,74.6,63.2,55.3,53.9,52.1,74,50,36,30.06,29.84,9,3,18,0.00
2013-7-19,87.7,73.6,65.3,64.0,59.5,55.3,86,63,36,29.91,29.74,15,2,24,0.46
2013-7-20,88.3,75.8,66.6,62.7,59.0,53.0,83,58,34,29.84,29.66,7,2,12,0.02
2013-7-21,90.7,78.3,69.1,60.1,55.8,47.7,69,49,24,29.79,29.65,11,3,16,0.00
2013-7-22,94.1,80.9,68.3,57.7,52.8,44.4,67,41,19,29.79,29.63,9,2,12,0.00
2013-7-23,97.0,82.8,69.7,55.5,51.5,43.2,59,36,19,29.76,29.60,9,2,12,0.00
2013-7-24,91.0,77.1,68.3,58.8,53.6,48.4,70,45,28,29.90,29.69,16,3,16,0.00
2013-7-25,85.4,75.1,66.5,60.2,58.8,57.5,75,58,40,29.97,29.82,8,3,12,0.00
2013-7-26,89.3,73.1,60.8,63.6,59.8,54.4,92,67,35,30.07,29.85,21,4,21,1.16
2013-7-27,83.4,73.5,63.4,60.8,57.6,53.9,83,59,40,30.08,29.80,9,3,14,0.00
2013-7-28,90.1,76.1,68.5,62.8,58.9,50.4,76,58,27,29.81,29.65,9,2,12,0.05
2013-7-29,92.2,78.8,64.6,61.6,53.7,44.4,85,48,20,29.87,29.76,8,2,16,0.01
2013-7-30,95.3,81.7,64.8,53.2,49.1,44.2,65,35,18,29.98,29.83,5,1,7,0.00
2013-7-31,95.7,83.6,70.5,55.9,49.5,39.6,59,33,15,29.96,29.78,8,2,10,0.00
2013-8-1,86.4,77.9,69.7,64.7,56.6,51.3,78,50,31,29.92,29.78,10,3,13,0.03
2013-8-2,94.0,76.7,65.7,62.9,59.4,52.3,86,59,26,29.88,29.73,10,2,17,0.09
2013-8-3,93.0,78.5,64.1,61.2,56.3,49.9,85,52,24,29.90,29.76,5,1,12,0.00
2013-8-4,93.3,80.6,67.3,62.6,56.9,47.9,81,47,23,29.87,29.70,12,3,18,0.15
2013-8-5,91.9,76.9,65.4,61.5,58.0,53.1,82,55,29,29.89,29.74,11,1,15,0.00
2013-8-6,88.1,77.1,68.0,56.8,53.7,47.8,61,45,26,29.81,29.71,10,2,16,0.00
2013-8-7,82.7,73.6,63.6,57.8,54.9,51.8,77,53,36,29.84,29.76,12,3,18,0.00
2013-8-8,89.3,75.4,65.8,57.2,51.6,42.5,71,47,21,29.86,29.75,9,3,12,0.00
2013-8-9,88.8,76.5,62.7,52.1,47.2,36.3,63,38,16,29.93,29.81,6,2,14,0.00
2013-8-10,84.0,72.5,64.1,55.9,51.9,44.5,70,50,31,30.08,29.89,10,4,17,0.04
2013-8-11,84.0,71.9,61.6,57.2,53.7,47.5,83,56,29,30.10,29.90,7,2,9,0.01
2013-8-12,84.7,74.0,66.5,59.5,56.2,52.7,73,55,36,30.00,29.85,9,3,14,0.00
2013-8-13,88.0,76.9,63.2,57.4,51.8,43.2,75,45,23,29.98,29.82,7,1,9,0.00
2013-8-14,89.9,76.6,63.5,58.6,51.9,41.2,72,45,19,29.93,29.79,16,2,16,0.00
2013-8-15,92.9,77.8,64.5,56.1,50.4,36.5,72,43,15,29.94,29.80,5,2,10,0.00
2013-8-16,97.8,81.8,66.9,52.4,45.8,24.9,55,32,8,29.92,29.76,7,2,9,0.00
2013-8-17,97.8,83.7,72.9,51.2,46.5,35.9,44,29,12,29.88,29.69,10,3,14,0.00
2013-8-18,93.9,82.3,70.5,54.4,49.6,44.5,55,34,19,29.87,29.71,7,2,10,0.00
2013-8-19,97.0,80.9,69.9,58.0,51.2,44.2,65,38,17,29.85,29.68,12,2,15,0.02
2013-8-20,92.9,75.6,64.7,66.3,57.1,50.5,83,56,25,29.87,29.72,10,2,12,0.46
2013-8-21,88.7,78.0,64.9,62.6,55.5,48.7,82,49,27,29.89,29.76,8,2,11,0.00
2013-8-22,91.4,80.7,66.6,54.2,49.1,41.3,61,35,23,29.91,29.72,6,2,9,0.00
2013-8-23,86.5,76.5,61.9,52.1,46.8,41.0,57,36,27,29.88,29.73,8,3,12,0.00
2013-8-24,85.1,75.2,67.2,63.1,55.1,49.7,80,52,31,29.92,29.78,10,2,11,0.18
2013-8-25,85.5,74.0,67.0,63.2,59.6,54.9,81,62,36,30.00,29.91,10,2,17,0.04
2013-8-26,88.3,77.1,63.9,61.0,56.4,48.0,83,52,31,30.02,29.85,9,2,14,0.00
2013-8-27,88.4,78.1,64.5,56.0,52.0,46.2,68,42,27,29.92,29.75,6,2,10,0.00
2013-8-28,88.3,76.7,66.0,56.6,52.9,49.2,64,45,28,29.93,29.81,9,3,12,0.00
2013-8-29,85.3,77.1,71.7,58.5,55.7,52.5,58,48,33,29.97,29.87,10,4,15,0.00
2013-8-30,92.4,80.3,69.5,61.8,55.7,43.9,74,47,20,29.94,29.76,7,2,11,0.00
2013-8-31,94.9,82.1,68.2,57.9,52.1,45.1,66,38,20,29.83,29.64,6,1,9,0.00
2013-9-1,94.0,79.8,69.0,61.4,52.1,46.6,76,40,23,29.88,29.67,11,2,12,0.10
2013-9-2,90.3,78.4,69.1,60.8,56.1,51.0,72,49,28,29.92,29.76,7,1,11,0.00
2013-9-3,92.4,78.4,67.1,60.6,55.8,49.2,75,49,24,29.92,29.75,11,2,19,0.12
2013-9-4,91.7,79.1,65.8,61.1,49.5,35.1,74,41,17,29.98,29.83,6,2,12,0.00
2013-9-5,91.9,79.0,62.0,46.7,40.8,35.6,51,27,16,29.99,29.85,6,2,9,0.00
2013-9-6,89.6,77.9,61.4,48.0,40.9,36.8,46,28,18,29.99,29.78,7,2,12,0.00
2013-9-7,77.2,70.6,66.1,50.0,47.6,45.3,52,44,35,29.89,29.86,1,0,5,0.00
2013-9-8,89.6,75.9,61.9,53.5,50.4,48.0,70,43,25,29.85,29.65,9,2,0,0.00
2013-9-9,89.3,76.2,63.2,55.9,52.2,44.8,73,45,25,29.75,29.59,8,3,0,0.00
2013-9-10,71.1,67.4,62.9,61.9,57.5,54.0,94,72,57,29.92,29.72,6,1,16,0.86
2013-9-11,83.0,70.4,62.2,62.8,58.6,49.1,95,70,33,29.98,29.86,7,2,16,0.00
2013-9-12,72.8,66.1,61.5,65.5,60.2,57.5,94,82,70,29.95,29.85,6,2,10,0.73
2013-9-13,74.3,65.0,60.6,61.6,59.8,57.0,94,84,55,29.95,29.83,7,2,10,0.76
2013-9-14,74.8,65.5,58.1,61.3,58.0,53.3,95,78,53,29.92,29.80,13,2,13,1.05
2013-9-15,80.8,67.4,57.6,59.2,55.2,50.3,93,68,35,29.98,29.87,6,2,11,0.21
2013-9-16,78.7,68.6,58.2,57.9,54.7,50.9,89,64,40,30.05,29.90,7,2,11,0.00
2013-9-17,81.2,70.8,60.0,58.7,56.2,50.8,87,62,35,29.96,29.74,8,3,12,0.00
2013-9-18,83.7,73.1,66.5,60.1,57.4,51.2,77,59,35,29.80,29.65,8,3,10,0.00
2013-9-19,86.0,72.9,61.0,61.4,54.3,44.7,90,57,25,29.81,29.69,7,1,7,0.23
2013-9-20,82.1,70.7,61.1,54.6,51.6,45.1,67,52,35,29.90,29.77,6,2,9,0.00
2013-9-21,80.0,69.0,57.8,56.7,53.7,50.2,86,60,37,29.92,29.73,9,3,13,0.00
2013-9-22,80.1,67.8,59.6,57.8,52.3,41.8,91,60,31,29.77,29.44,21,5,31,0.28
2013-9-23,73.7,62.3,48.6,41.6,36.1,32.2,68,40,22,30.00,29.65,10,3,14,0.00
2013-9-24,76.8,63.4,50.9,47.0,41.7,37.2,69,48,26,30.10,29.88,5,1,12,0.00
2013-9-25,83.9,67.5,49.7,48.2,43.5,36.5,82,47,22,29.89,29.57,12,4,16,0.00
2013-9-26,82.7,69.5,54.0,45.3,40.2,32.7,65,38,18,29.69,29.54,14,5,18,0.00
2013-9-27,71.8,62.7,49.1,50.3,42.2,34.1,57,47,40,29.96,29.60,13,4,17,0.00
2013-9-28,71.5,55.6,39.4,34.6,26.7,14.0,71,38,11,30.21,29.96,6,1,10,0.00
2013-9-29,78.8,59.2,41.4,34.0,29.3,21.8,73,38,12,30.22,29.98,4,1,7,0.00
2013-9-30,84.8,64.7,47.1,36.5,31.5,24.5,61,33,12,30.00,29.78,4,1,6,0.00
2013-10-1,86.1,66.5,46.7,36.7,29.5,14.2,65,31,7,29.93,29.79,4,0,4,0.00
2013-10-2,82.0,64.5,46.1,37.5,31.8,21.2,66,34,11,29.94,29.76,4,1,7,0.00
2013-10-3,77.9,64.6,47.5,38.3,34.1,25.6,68,36,15,29.84,29.62,9,2,12,0.00
2013-10-4,64.4,57.2,49.8,36.5,21.9,8.3,48,27,13,30.10,29.70,12,6,18,0.00
2013-10-5,62.8,52.0,40.0,24.3,20.2,14.6,52,30,16,30.28,30.10,9,3,16,0.00
2013-10-6,72.6,54.4,37.3,29.0,23.6,17.9,60,33,14,30.36,30.19,3,0,16,0.00
2013-10-7,75.4,57.7,40.7,31.4,26.0,18.7,58,33,12,30.25,30.03,6,1,7,0.00
2013-10-8,78.7,62.6,46.1,33.0,30.7,27.5,59,33,17,30.03,29.73,7,2,13,0.00
2013-10-9,75.7,62.4,46.4,38.8,34.0,27.4,64,37,18,29.85,29.70,10,3,15,0.00
2013-10-10,70.4,57.8,44.7,48.2,37.0,28.2,72,47,28,29.92,29.59,24,6,35,0.14
2013-10-11,64.4,50.0,36.2,34.8,32.3,30.9,83,54,29,30.08,29.92,9,1,35,0.00
2013-10-12,71.5,55.6,40.5,39.4,34.8,32.5,76,49,25,30.18,30.00,5,2,11,0.00
2013-10-13,77.8,62.5,46.4,44.9,39.9,34.7,72,47,21,30.09,29.82,14,4,23,0.00
2013-10-14,69.9,60.4,50.0,45.5,30.8,18.0,71,36,16,29.97,29.83,11,3,23,0.00
2013-10-15,65.6,52.2,39.5,33.6,28.9,23.7,62,42,29,30.07,29.90,11,4,18,0.00
2013-10-16,63.6,52.7,44.8,36.2,29.0,14.1,66,43,19,30.11,30.00,7,3,28,0.00
2013-10-17,66.1,49.8,34.2,28.0,22.1,17.9,65,37,16,30.19,29.96,6,1,7,0.00
2013-10-18,64.0,51.2,35.5,27.2,19.6,11.9,67,33,13,30.18,29.97,10,3,17,0.00
2013-10-19,66.8,49.2,34.7,30.4,24.7,16.1,77,44,16,30.24,30.05,4,1,6,0.00
2013-10-20,72.6,54.9,36.0,26.1,20.1,11.5,63,29,11,30.09,29.84,9,2,11,0.00
2013-10-21,65.9,54.0,41.5,32.6,28.3,19.6,62,39,22,30.16,29.94,5,1,9,0.00
2013-10-22,70.5,52.2,36.0,30.2,25.9,15.9,71,41,13,30.30,30.14,4,0,6,0.00
2013-10-23,71.3,53.8,38.5,31.4,27.3,21.7,64,38,19,30.24,30.06,5,1,7,0.00
2013-10-24,74.9,57.4,42.9,48.8,32.6,27.0,81,43,20,30.20,30.01,11,2,14,0.05
2013-10-25,66.1,55.4,48.0,49.3,45.2,39.6,88,70,45,30.18,30.02,9,3,17,0.07
2013-10-26,69.2,53.6,39.5,45.0,40.1,36.7,92,64,34,30.31,30.15,4,1,17,0.00
2013-10-27,68.6,54.7,39.5,40.6,37.4,33.0,89,56,27,30.22,29.88,6,1,8,0.00
2013-10-28,71.0,58.1,47.0,42.2,33.6,20.5,73,45,18,29.90,29.77,8,2,9,0.00
2013-10-29,68.9,59.9,51.1,28.8,26.3,22.6,38,28,19,29.93,29.71,16,6,19,0.00
2013-10-30,58.8,51.5,41.5,39.5,33.0,25.9,68,50,33,29.97,29.72,10,2,14,0.05
2013-10-31,56.1,46.3,35.0,31.5,27.7,23.8,77,51,30,30.16,29.97,11,4,15,0.00
2013-11-1,62.1,50.1,37.6,29.4,27.2,24.2,67,43,24,30.28,30.12,8,2,11,0.00
2013-11-2,63.7,49.9,35.5,29.5,26.7,22.2,71,44,21,30.36,30.06,7,1,11,0.00
2013-11-3,68.2,56.0,45.9,37.5,30.5,23.9,62,39,23,30.06,29.71,10,2,12,0.00
2013-11-4,66.6,55.7,39.7,43.2,36.6,33.1,77,51,32,29.90,29.72,11,4,18,0.00
2013-11-5,56.0,46.2,36.3,44.4,32.8,17.7,89,61,41,30.30,29.75,10,3,18,0.14
2013-11-6,55.9,42.6,27.7,20.2,16.3,10.9,69,37,18,30.54,30.31,6,2,10,0.00
2013-11-7,61.2,44.7,31.1,26.8,23.6,18.5,71,46,22,30.57,30.33,5,1,12,0.00
2013-11-8,63.1,46.1,29.7,29.2,26.7,24.3,85,51,23,30.34,30.10,5,1,10,0.00
2013-11-9,69.8,49.8,33.4,29.6,26.8,22.9,76,46,18,30.27,30.15,2,0,6,0.00
2013-11-10,68.0,50.8,37.0,30.4,27.0,21.5,69,44,17,30.34,30.20,4,1,8,0.00
2013-11-11,69.5,52.6,39.4,29.8,26.3,22.2,65,39,17,30.36,30.20,7,2,9,0.00
2013-11-12,60.2,48.0,38.9,36.1,31.9,24.2,74,55,37,30.57,30.36,5,1,9,0.00
2013-11-13,55.2,46.6,36.4,39.8,37.1,32.6,86,70,53,30.55,30.20,5,1,9,0.00
2013-11-14,62.1,48.0,35.9,40.9,35.8,29.6,91,65,35,30.20,29.97,4,0,7,0.00
2013-11-15,61.2,46.4,32.9,45.7,34.7,26.1,90,65,38,29.98,29.72,14,4,17,0.08
2013-11-16,61.6,52.3,45.2,44.7,37.4,28.8,90,59,33,29.84,29.62,8,3,13,0.01
2013-11-17,60.2,50.1,37.4,33.8,31.7,29.7,76,51,35,30.18,29.84,9,3,12,0.00
2013-11-18,60.0,44.9,36.2,33.1,31.3,29.2,77,61,33,30.29,30.16,2,0,9,0.00
2013-11-19,63.0,46.0,31.3,36.6,32.8,27.9,88,64,33,30.20,29.92,4,1,8,0.00
2013-11-20,50.1,45.1,40.2,43.2,37.8,31.1,93,76,55,29.99,29.89,5,1,8,0.18
2013-11-21,57.6,47.7,42.5,45.6,43.2,39.6,95,85,59,30.12,29.98,5,1,8,0.21
2013-11-22,43.8,38.4,35.8,39.4,30.4,25.9,86,73,63,30.46,30.10,9,2,19,0.02
2013-11-23,39.9,36.0,28.4,32.1,27.1,19.0,91,71,55,30.54,30.41,16,3,21,0.02
2013-11-24,32.5,29.7,24.4,26.5,23.4,18.3,90,77,68,30.49,30.31,9,2,20,0.04
2013-11-25,47.8,35.5,28.4,30.8,28.1,24.8,91,76,49,30.48,30.27,6,2,20,0.01
2013-11-26,49.9,36.8,25.9,30.6,28.0,23.2,92,72,46,30.61,30.48,3,0,8,0.00
2013-11-27,46.6,36.9,26.0,29.4,27.3,22.7,89,70,48,30.54,30.33,4,1,7,0.00
2013-11-28,51.8,37.5,27.8,28.5,26.2,24.0,89,66,36,30.43,30.31,3,0,4,0.00
2013-11-29,56.1,39.7,27.0,32.0,28.3,23.6,89,67,37,30.51,30.36,3,0,6,0.00
2013-11-30,57.8,42.7,32.1,33.3,30.9,27.3,85,66,39,30.44,30.26,4,1,9,0.00
2013-12-1,50.0,40.2,34.4,33.3,30.7,27.7,83,69,51,30.40,30.30,8,3,14,0.00
2013-12-2,54.4,41.0,32.5,30.3,28.0,25.8,77,61,39,30.33,29.96,7,1,10,0.00
2013-12-3,65.3,47.6,29.9,29.2,22.2,13.0,81,44,13,29.96,29.65,10,3,14,0.00
2013-12-4,60.6,48.4,38.2,31.6,24.4,16.2,66,41,21,29.86,29.54,17,7,26,0.00
2013-12-5,39.2,28.5,16.3,31.6,24.3,11.5,94,85,52,30.19,29.82,6,2,6,0.06
2013-12-6,36.6,24.4,14.2,20.4,15.3,10.9,92,70,39,30.45,30.20,4,1,10,0.10
2013-12-7,34.0,26.6,18.1,29.1,21.0,12.0,86,79,72,30.38,30.06,5,2,7,0.00
2013-12-8,35.8,31.4,26.9,27.6,17.5,11.0,85,57,44,30.17,29.98,11,4,18,0.00
2013-12-9,31.3,26.2,18.8,17.5,9.7,2.2,70,50,32,30.71,30.17,12,4,17,0.00
2013-12-10,36.0,23.9,13.2,11.6,5.8,1.5,67,47,27,30.76,30.54,9,2,11,0.00
2013-12-11,44.6,28.9,16.3,19.4,14.0,9.8,77,56,29,30.75,30.57,6,1,10,0.00
2013-12-12,42.9,32.1,23.2,21.5,17.7,12.1,73,56,40,30.73,30.32,4,1,8,0.00
2013-12-13,48.0,38.0,32.5,32.8,26.6,20.6,87,64,51,30.31,30.09,9,2,12,0.00
2013-12-14,48.1,37.2,27.6,21.4,19.5,17.3,71,50,30,30.55,30.24,7,2,11,0.00
2013-12-15,49.1,37.6,24.8,21.5,19.5,17.5,75,49,31,30.57,30.43,10,3,14,0.00
2013-12-16,56.8,41.7,26.3,24.1,22.1,19.8,77,48,26,30.54,30.39,7,1,10,0.00
2013-12-17,59.0,40.8,27.6,24.6,22.8,20.7,77,52,25,30.55,30.38,5,1,8,0.00
2013-12-18,55.0,39.4,27.5,26.5,24.1,21.2,78,57,31,30.39,30.03,5,0,6,0.00
2013-12-19,57.2,43.0,29.1,28.4,24.5,19.1,79,51,28,30.03,29.76,5,1,9,0.00
2013-12-20,45.5,33.2,29.3,26.7,22.8,19.5,77,66,45,29.86,29.81,3,0,9,0.00
2013-12-25,48.8,36.5,27.7,23.7,18.9,13.9,71,51,27,30.55,30.42,5,1,0,0.00
2013-12-26,52.4,34.7,19.8,19.9,16.4,13.0,77,50,26,30.59,30.42,4,1,0,0.00
2013-12-27,54.7,37.8,28.1,21.0,16.8,13.8,69,45,22,30.54,30.36,5,1,0,0.00
2013-12-28,48.6,35.0,21.9,21.4,18.2,15.2,76,53,28,30.36,30.08,4,1,0,0.00
2013-12-29,46.4,39.1,28.1,24.3,22.7,20.9,77,52,36,30.31,30.11,7,1,0,0.00
2013-12-30,52.3,37.8,25.4,21.7,15.2,8.9,78,43,19,30.49,30.31,6,1,0,0.00
2013-12-31,51.0,34.2,24.0,19.5,16.8,15.3,70,51,26,30.49,30.29,4,1,9,0.00
2014-1-1,54.4,39.8,24.9,22.6,19.2,15.4,76,48,22,30.43,30.22,15,3,25,0.00
2014-1-2,51.6,36.6,23.4,24.4,17.2,10.9,78,49,20,30.52,30.37,4,1,8,0.00